Time;durP1;ratioP1;P1;durP2;ratioP2;P2;SDS_P1;SDS_P2;PMS_P1;PMS_P2;Temp;Humidity;BMP_temperature;BMP_pressure;BME280_temperature;BME280_humidity;BME280_pressure;Samples;Min_cycle;Max_cycle;Signal;HPM_P1;HPM_P2
2022/05/16 00:01:59;;;;;;;21.90;14.20;;;;;;;9.01;87.58;99298.42;105247;1268;61290;-77
2022/05/16 00:04:26;;;;;;;19.10;13.10;;;;;;;8.99;87.99;99297.83;105270;1268;75002;-78
2022/05/16 00:06:52;;;;;;;22.60;13.30;;;;;;;8.96;88.14;99299.23;105316;1268;68847;-77
2022/05/16 00:09:19;;;;;;;19.40;11.60;;;;;;;8.93;88.17;99300.13;105233;1268;60278;-77
2022/05/16 00:11:45;;;;;;;13.90;10.70;;;;;;;8.89;88.24;99297.16;105259;1268;60497;-78
2022/05/16 00:14:12;;;;;;;16.60;11.30;;;;;;;8.83;88.34;99299.64;105244;1267;60363;-76
2022/05/16 00:16:39;;;;;;;13.00;10.90;;;;;;;8.75;88.52;99295.39;105243;1268;74393;-74
2022/05/16 00:19:06;;;;;;;16.30;11.20;;;;;;;8.70;88.66;99296.73;105234;1268;69350;-76
2022/05/16 00:21:33;;;;;;;19.80;13.40;;;;;;;8.66;88.80;99299.27;105227;1268;72840;-76
2022/05/16 00:23:59;;;;;;;17.80;12.50;;;;;;;8.62;89.07;99297.19;105233;1268;60599;-76
2022/05/16 00:26:26;;;;;;;16.40;12.50;;;;;;;8.56;89.28;99287.98;105134;1268;61228;-76
2022/05/16 00:28:53;;;;;;;19.70;11.90;;;;;;;8.51;89.58;99287.36;105104;1269;60447;-76
2022/05/16 00:31:19;;;;;;;17.10;12.40;;;;;;;8.47;89.49;99286.69;105228;1268;69030;-77
2022/05/16 00:33:46;;;;;;;21.80;13.30;;;;;;;8.43;89.84;99290.61;105217;1268;73227;-77
2022/05/16 00:36:12;;;;;;;19.80;12.60;;;;;;;8.38;90.09;99288.88;105209;1268;60466;-77
2022/05/16 00:38:40;;;;;;;19.50;12.80;;;;;;;8.33;90.41;99290.03;105207;1268;62415;-76
2022/05/16 00:41:07;;;;;;;24.20;14.30;;;;;;;8.30;90.78;99293.73;105255;1268;74285;-78
2022/05/16 00:43:55;;;;;;;21.20;13.30;;;;;;;8.28;91.20;99296.48;104987;1268;360670;-78
2022/05/16 00:46:25;;;;;;;20.80;13.50;;;;;;;8.26;91.25;99295.02;105234;1268;73770;-76
2022/05/16 00:48:52;;;;;;;17.50;13.80;;;;;;;8.23;91.25;99295.67;105090;1271;61058;-77
2022/05/16 00:51:23;;;;;;;23.40;14.70;;;;;;;8.18;91.39;99302.50;105197;1271;60336;-76
2022/05/16 00:53:58;;;;;;;21.00;14.60;;;;;;;8.14;91.94;99299.52;105253;1268;74351;-76
2022/05/16 00:56:27;;;;;;;21.30;15.40;;;;;;;8.12;92.37;99301.04;105210;1268;69232;-76
2022/05/16 00:58:55;;;;;;;25.20;15.20;;;;;;;8.11;92.45;99309.23;105229;1268;73348;-77
2022/05/16 01:06:57;;;;;;;20.60;13.60;;;;;;;7.97;93.13;99310.66;105202;1268;75320;-76
2022/05/16 01:09:24;;;;;;;21.70;13.50;;;;;;;7.94;93.40;99309.76;105272;1268;69500;-76
2022/05/16 01:11:52;;;;;;;18.00;13.20;;;;;;;7.92;93.72;99309.52;105245;1271;71621;-76
2022/05/16 01:14:42;;;;;;;20.20;13.20;;;;;;;7.89;93.74;99312.34;105379;1268;60561;-78
2022/05/16 01:17:09;;;;;;;21.30;12.70;;;;;;;7.83;93.74;99313.52;105130;1269;60348;-76
2022/05/16 01:19:36;;;;;;;22.60;13.70;;;;;;;7.79;93.84;99314.22;105195;1271;73969;-74
2022/05/16 01:22:18;;;;;;;21.50;13.80;;;;;;;7.76;94.16;99317.38;105211;1268;60375;-75
2022/05/16 01:24:45;;;;;;;21.60;13.00;;;;;;;7.71;94.10;99321.02;105263;1268;73306;-76
2022/05/16 01:27:12;;;;;;;19.40;14.50;;;;;;;7.69;94.30;99317.04;105250;1268;60607;-77
2022/05/16 01:29:38;;;;;;;19.00;13.30;;;;;;;7.66;94.21;99313.65;105224;1268;60376;-75
2022/05/16 01:32:05;;;;;;;21.20;12.90;;;;;;;7.63;94.26;99306.38;105271;1268;75379;-76
2022/05/16 01:34:32;;;;;;;16.10;12.10;;;;;;;7.62;94.40;99309.08;105130;1271;70574;-75
2022/05/16 01:36:58;;;;;;;27.30;13.70;;;;;;;7.62;94.48;99303.25;105232;1268;60590;-77
2022/05/16 01:39:25;;;;;;;18.10;12.40;;;;;;;7.58;94.37;99303.27;105240;1268;60486;-77
2022/05/16 01:41:51;;;;;;;18.20;13.10;;;;;;;7.54;94.34;99304.52;105264;1268;60340;-77
2022/05/16 01:44:18;;;;;;;16.80;12.90;;;;;;;7.50;94.57;99303.30;105263;1268;60545;-77
2022/05/16 01:46:44;;;;;;;20.60;13.40;;;;;;;7.47;94.80;99303.05;105209;1268;69245;-77
2022/05/16 01:49:11;;;;;;;21.10;13.90;;;;;;;7.44;94.88;99296.85;105265;1268;60439;-75
2022/05/16 01:51:38;;;;;;;19.20;13.80;;;;;;;7.42;94.79;99292.20;105243;1268;60536;-76
2022/05/16 01:54:05;;;;;;;18.30;14.50;;;;;;;7.39;94.86;99295.00;105242;1268;60719;-76
2022/05/16 01:56:33;;;;;;;19.20;14.80;;;;;;;7.32;94.70;99293.05;105236;1268;75354;-77
2022/05/16 01:59:01;;;;;;;18.50;13.70;;;;;;;7.24;94.97;99295.36;105299;1268;70240;-77
2022/05/16 02:01:28;;;;;;;23.00;16.00;;;;;;;7.18;95.34;99297.64;105277;1268;74203;-76
2022/05/16 02:03:54;;;;;;;26.80;16.70;;;;;;;7.11;95.28;99295.30;105104;1269;60786;-77
2022/05/16 02:06:21;;;;;;;20.10;14.50;;;;;;;7.07;95.74;99298.33;105221;1268;60484;-76
2022/05/16 02:08:48;;;;;;;22.90;15.30;;;;;;;7.05;96.08;99295.04;105188;1271;60511;-77
2022/05/16 02:11:15;;;;;;;26.50;17.10;;;;;;;7.05;96.36;99297.17;105231;1268;69337;-76
2022/05/16 02:13:45;;;;;;;27.40;17.00;;;;;;;7.04;96.63;99298.30;105247;1268;72799;-77
2022/05/16 02:16:12;;;;;;;25.20;15.80;;;;;;;7.04;97.32;99305.52;105272;1268;60494;-78
2022/05/16 02:18:39;;;;;;;22.90;17.10;;;;;;;7.05;97.87;99300.17;105220;1268;61095;-76
2022/05/16 02:26:36;;;;;;;25.90;16.60;;;;;;;7.02;97.93;99309.15;105264;1268;72860;-76
2022/05/16 02:29:02;;;;;;;20.30;16.20;;;;;;;6.99;98.02;99314.74;105254;1268;60491;-76
2022/05/16 02:31:29;;;;;;;25.10;16.80;;;;;;;6.98;98.19;99319.93;105169;1271;61146;-78
2022/05/16 02:33:56;;;;;;;23.70;17.40;;;;;;;6.94;98.30;99322.05;105290;1268;75460;-76
2022/05/16 02:36:23;;;;;;;23.60;17.80;;;;;;;6.92;98.49;99325.35;105316;1268;69197;-75
2022/05/16 02:38:49;;;;;;;25.60;17.50;;;;;;;6.90;98.89;99326.34;105322;1268;73731;-76
2022/05/16 02:41:16;;;;;;;29.30;18.50;;;;;;;6.90;99.69;99327.89;105323;1268;60494;-77
2022/05/16 02:43:42;;;;;;;26.20;19.40;;;;;;;6.94;100.00;99327.73;105313;1268;61023;-76
2022/05/16 02:46:09;;;;;;;28.30;20.40;;;;;;;6.98;100.00;99328.07;105242;1268;60583;-77
2022/05/16 02:48:36;;;;;;;25.20;17.80;;;;;;;7.00;100.00;99324.26;105271;1268;68388;-77
2022/05/16 02:51:02;;;;;;;24.50;17.20;;;;;;;7.01;100.00;99329.00;105294;1268;60605;-78
2022/05/16 02:53:29;;;;;;;23.20;16.70;;;;;;;7.00;100.00;99330.98;105316;1268;61981;-76
2022/05/16 02:55:55;;;;;;;20.80;17.00;;;;;;;6.99;100.00;99335.45;105025;1268;60379;-77
2022/05/16 02:58:22;;;;;;;20.60;16.10;;;;;;;6.97;100.00;99336.79;105238;1268;60317;-78
2022/05/16 03:00:48;;;;;;;24.70;16.00;;;;;;;6.96;100.00;99339.66;105291;1268;60500;-77
2022/05/16 03:03:15;;;;;;;21.30;16.70;;;;;;;6.93;100.00;99338.54;105263;1268;60494;-79
2022/05/16 03:05:41;;;;;;;21.30;17.30;;;;;;;6.92;100.00;99338.42;105265;1268;60557;-76
2022/05/16 03:08:08;;;;;;;24.30;18.30;;;;;;;6.93;100.00;99338.20;105255;1268;60469;-76
2022/05/16 03:10:35;;;;;;;21.60;17.60;;;;;;;6.95;100.00;99337.92;105279;1268;60522;-76
2022/05/16 03:13:02;;;;;;;21.50;17.20;;;;;;;6.96;100.00;99340.85;105337;1267;70034;-75
2022/05/16 03:15:30;;;;;;;21.80;17.90;;;;;;;6.97;100.00;99345.43;105297;1268;72439;-78
2022/05/16 03:17:58;;;;;;;25.90;18.00;;;;;;;6.96;100.00;99345.09;105248;1269;60477;-76
2022/05/16 03:20:25;;;;;;;22.70;16.90;;;;;;;6.97;100.00;99345.41;105269;1268;60879;-77
2022/05/16 03:22:51;;;;;;;24.50;18.10;;;;;;;6.97;100.00;99344.54;105319;1268;75492;-75
2022/05/16 03:25:18;;;;;;;26.00;18.00;;;;;;;7.02;100.00;99340.40;105321;1268;69473;-75
2022/05/16 03:27:44;;;;;;;24.90;17.30;;;;;;;7.30;100.00;99342.66;105330;1268;72565;-76
2022/05/16 03:30:12;;;;;;;21.80;17.30;;;;;;;7.99;100.00;99332.13;105306;1267;60461;-77
2022/05/16 03:32:38;;;;;;;18.60;15.00;;;;;;;8.70;99.66;99327.23;105323;1268;60485;-76
2022/05/16 03:35:07;;;;;;;21.70;16.00;;;;;;;9.28;98.00;99326.50;105330;1268;60481;-76
2022/05/16 03:37:34;;;;;;;20.30;15.00;;;;;;;9.90;96.64;99321.02;105343;1268;70083;-78
2022/05/16 03:42:45;;;;;;;19.70;15.40;;;;;;;11.26;92.46;99312.83;105129;1267;60661;-76
2022/05/16 03:45:12;;;;;;;16.60;14.40;;;;;;;11.81;89.89;99310.45;105174;1270;60690;-76
2022/05/16 03:47:38;;;;;;;16.90;14.00;;;;;;;12.39;87.03;99309.02;105307;1268;74361;-77
2022/05/16 03:50:06;;;;;;;15.40;13.40;;;;;;;12.91;84.59;99307.15;105322;1268;60356;-77
2022/05/16 03:52:33;;;;;;;16.10;12.60;;;;;;;13.44;82.34;99305.64;105306;1268;73620;-77
2022/05/16 03:55:00;;;;;;;16.90;12.70;;;;;;;13.91;80.21;99307.70;105309;1268;60911;-76
2022/05/16 03:57:26;;;;;;;15.30;12.30;;;;;;;14.37;78.34;99306.30;105313;1268;60443;-76
2022/05/16 03:59:53;;;;;;;14.20;12.30;;;;;;;14.80;76.86;99304.02;105301;1268;75449;-76
2022/05/16 04:02:19;;;;;;;17.00;13.00;;;;;;;15.30;74.93;99294.41;105296;1267;60472;-76
2022/05/16 04:04:46;;;;;;;14.10;12.40;;;;;;;15.74;73.15;99290.85;105303;1268;60380;-76
2022/05/16 04:07:12;;;;;;;15.60;12.50;;;;;;;16.14;71.53;99291.38;105254;1268;60348;-77
2022/05/16 04:09:39;;;;;;;16.70;14.10;;;;;;;16.56;70.17;99291.71;105334;1268;60466;-76
2022/05/16 04:12:06;;;;;;;14.10;12.20;;;;;;;16.97;68.56;99291.42;105341;1268;60464;-77
2022/05/16 04:14:34;;;;;;;20.00;13.60;;;;;;;17.33;67.06;99292.55;105323;1268;69399;-77
2022/05/16 04:17:00;;;;;;;18.50;14.40;;;;;;;17.60;65.81;99293.10;105311;1268;73167;-76
2022/05/16 04:19:27;;;;;;;17.10;14.00;;;;;;;17.83;64.68;99299.61;105026;1271;60565;-77
2022/05/16 04:21:53;;;;;;;13.60;12.30;;;;;;;18.03;64.00;99302.63;105293;1268;60440;-79
2022/05/16 04:24:20;;;;;;;15.40;13.30;;;;;;;18.14;63.49;99300.95;105305;1268;74431;-75
2022/05/16 04:26:46;;;;;;;15.30;13.10;;;;;;;18.36;62.77;99297.79;105276;1268;68752;-76
2022/05/16 04:29:13;;;;;;;16.40;13.10;;;;;;;18.57;62.25;99295.95;105294;1267;60474;-77
2022/05/16 04:31:41;;;;;;;17.10;14.70;;;;;;;18.91;61.55;99299.56;105323;1268;60693;-77
2022/05/16 04:34:09;;;;;;;16.10;14.50;;;;;;;19.03;60.47;99298.95;105393;1268;60856;-77
2022/05/16 04:36:37;;;;;;;16.40;14.40;;;;;;;19.10;60.00;99301.30;105291;1268;74250;-76
2022/05/16 04:39:04;;;;;;;14.10;12.80;;;;;;;19.43;59.63;99298.42;105361;1268;70209;-76
2022/05/16 04:44:16;;;;;;;12.70;11.50;;;;;;;20.00;57.41;99298.50;105332;1268;60590;-76
2022/05/16 04:46:43;;;;;;;12.90;11.50;;;;;;;20.13;56.77;99300.84;105355;1268;60452;-77
2022/05/16 04:49:10;;;;;;;13.40;10.50;;;;;;;20.35;55.98;99301.30;105308;1268;75573;-79
2022/05/16 04:51:37;;;;;;;13.50;10.50;;;;;;;20.56;55.28;99300.96;105318;1268;68248;-77
2022/05/16 04:54:03;;;;;;;12.10;10.90;;;;;;;20.72;54.44;99299.83;105314;1268;73431;-81
2022/05/16 04:56:30;;;;;;;12.80;11.00;;;;;;;20.77;53.31;99298.73;105330;1268;60965;-76
2022/05/16 04:58:57;;;;;;;11.60;10.10;;;;;;;20.82;53.06;99298.48;105024;1271;61937;-76
2022/05/16 05:01:24;;;;;;;10.20;8.80;;;;;;;21.04;52.33;99297.58;105338;1268;73757;-78
2022/05/16 05:03:50;;;;;;;12.80;9.10;;;;;;;20.99;50.69;99297.17;105333;1268;68310;-78
2022/05/16 05:06:17;;;;;;;10.10;8.90;;;;;;;20.95;50.88;99301.06;105311;1268;61180;-79
2022/05/16 05:08:45;;;;;;;10.70;9.00;;;;;;;21.13;50.84;99300.89;105311;1268;60500;-77
2022/05/16 05:16:42;;;;;;;11.20;9.20;;;;;;;21.68;49.77;99310.27;105301;1268;69264;-78
2022/05/16 05:19:09;;;;;;;9.90;8.90;;;;;;;21.86;49.40;99304.36;105289;1268;73356;-78
2022/05/16 05:21:35;;;;;;;9.70;8.60;;;;;;;22.00;49.21;99300.58;105305;1268;60337;-76
2022/05/16 05:24:02;;;;;;;10.40;8.80;;;;;;;22.20;48.57;99303.70;105321;1268;60312;-78
2022/05/16 05:26:29;;;;;;;8.70;7.90;;;;;;;22.16;47.72;99306.29;105362;1268;74640;-78
2022/05/16 05:28:56;;;;;;;10.20;7.90;;;;;;;22.23;47.62;99306.82;105310;1268;68842;-78
2022/05/16 05:31:25;;;;;;;9.40;7.70;;;;;;;22.29;47.01;99306.89;105303;1268;73895;-77
2022/05/16 05:33:54;;;;;;;10.30;7.60;;;;;;;22.42;46.94;99302.04;105199;1268;60376;-77
2022/05/16 05:36:21;;;;;;;8.80;7.90;;;;;;;22.61;46.64;99304.39;105140;1271;60777;-77
2022/05/16 05:38:51;;;;;;;11.00;8.40;;;;;;;22.59;46.18;99306.08;105345;1268;74756;-76
2022/05/16 05:41:21;;;;;;;10.50;8.10;;;;;;;22.45;46.34;99304.61;105343;1268;70676;-78
2022/05/16 05:43:48;;;;;;;11.00;8.00;;;;;;;22.46;46.71;99307.11;105306;1268;74532;-77
2022/05/16 05:46:16;;;;;;;10.30;7.40;;;;;;;22.59;46.63;99304.21;105336;1268;60589;-76
2022/05/16 05:48:43;;;;;;;8.30;7.00;;;;;;;22.92;46.35;99301.43;105427;1268;60906;-77
2022/05/16 05:51:10;;;;;;;9.40;6.50;;;;;;;23.06;45.88;99299.88;105361;1267;74573;-77
2022/05/16 05:53:37;;;;;;;9.60;6.90;;;;;;;23.22;45.63;99300.46;105334;1268;70591;-77
2022/05/16 05:56:05;;;;;;;10.90;7.40;;;;;;;23.26;44.98;99304.86;105295;1268;74033;-76
2022/05/16 05:58:33;;;;;;;8.00;5.80;;;;;;;23.34;45.03;99301.53;105079;1271;60472;-77
2022/05/16 06:01:00;;;;;;;9.10;6.10;;;;;;;23.45;44.48;99299.53;105340;1268;62097;-76
2022/05/16 06:03:27;;;;;;;9.10;7.10;;;;;;;23.40;44.19;99298.88;105334;1268;73306;-77
2022/05/16 06:05:54;;;;;;;8.00;6.50;;;;;;;23.37;44.47;99302.30;105340;1268;69204;-78
2022/05/16 06:08:21;;;;;;;7.50;6.00;;;;;;;23.28;44.19;99304.42;105016;1268;72711;-78
2022/05/16 06:10:49;;;;;;;9.80;6.70;;;;;;;23.34;44.18;99305.34;105347;1268;60395;-76
2022/05/16 06:13:18;;;;;;;8.10;5.70;;;;;;;23.36;43.79;99300.95;105335;1268;60817;-76
2022/05/16 06:15:45;;;;;;;10.80;5.60;;;;;;;23.35;43.66;99302.46;105330;1268;74386;-77
2022/05/16 06:18:11;;;;;;;6.80;5.30;;;;;;;23.24;43.35;99304.29;105292;1268;69362;-77
2022/05/16 06:20:39;;;;;;;7.60;6.00;;;;;;;23.03;43.62;99301.11;105312;1268;72139;-77
2022/05/16 06:23:05;;;;;;;7.40;5.50;;;;;;;22.94;44.11;99301.58;105310;1268;60514;-76
2022/05/16 06:25:33;;;;;;;9.00;4.90;;;;;;;22.96;43.87;99300.75;105364;1268;60932;-76
2022/05/16 06:28:05;;;;;;;6.90;5.50;;;;;;;23.06;43.91;99300.73;105402;1268;74334;-79
2022/05/16 06:30:33;;;;;;;7.20;5.70;;;;;;;23.25;43.83;99298.64;105354;1268;70406;-77
2022/05/16 06:33:00;;;;;;;6.70;5.10;;;;;;;23.20;43.63;99294.38;105328;1268;74259;-77
2022/05/16 06:35:27;;;;;;;7.20;5.30;;;;;;;23.14;43.48;99292.02;105358;1268;60590;-79
2022/05/16 06:37:54;;;;;;;8.70;5.60;;;;;;;23.23;43.72;99297.23;105372;1268;60906;-77
2022/05/16 06:40:21;;;;;;;10.30;6.10;;;;;;;23.37;43.70;99297.23;105366;1268;60469;-77
2022/05/16 06:42:48;;;;;;;8.30;5.50;;;;;;;23.40;43.46;99296.97;105226;1268;69793;-75
2022/05/16 06:45:17;;;;;;;8.20;5.20;;;;;;;23.42;42.73;99294.62;105368;1268;73288;-77
2022/05/16 06:47:44;;;;;;;7.20;5.70;;;;;;;23.22;42.72;99300.42;105051;1269;60505;-76
2022/05/16 06:50:12;;;;;;;9.30;5.80;;;;;;;23.27;42.87;99300.50;105346;1267;60867;-77
2022/05/16 06:52:38;;;;;;;10.10;5.50;;;;;;;23.20;42.83;99298.73;105360;1268;74365;-78
2022/05/16 06:55:06;;;;;;;7.50;5.30;;;;;;;23.11;42.58;99297.48;105269;1268;68744;-78
2022/05/16 06:57:33;;;;;;;8.60;5.10;;;;;;;23.06;42.39;99302.13;105328;1268;73394;-77
2022/05/16 07:00:00;;;;;;;7.20;4.90;;;;;;;23.01;42.50;99303.57;105029;1271;60590;-78
2022/05/16 07:02:27;;;;;;;8.00;5.10;;;;;;;23.06;42.88;99304.38;105319;1268;61294;-76
2022/05/16 07:04:54;;;;;;;7.30;5.50;;;;;;;23.07;42.94;99305.04;105308;1267;74342;-77
2022/05/16 07:07:20;;;;;;;10.40;5.70;;;;;;;23.09;43.14;99308.19;105310;1268;69260;-78
2022/05/16 07:09:47;;;;;;;9.40;6.50;;;;;;;23.14;43.02;99309.96;105346;1268;60579;-78
2022/05/16 07:12:13;;;;;;;6.60;5.10;;;;;;;22.92;42.05;99308.52;105221;1268;60572;-78
2022/05/16 07:14:40;;;;;;;9.80;5.70;;;;;;;22.32;42.51;99309.02;105322;1268;60478;-77
2022/05/16 07:17:06;;;;;;;9.40;5.60;;;;;;;21.75;43.29;99310.10;105303;1268;74506;-78
2022/05/16 07:19:36;;;;;;;8.80;5.70;;;;;;;21.40;44.04;99311.43;105383;1268;68127;-77
2022/05/16 07:22:09;;;;;;;11.30;4.80;;;;;;;21.25;44.58;99312.50;105378;1267;74386;-78
2022/05/16 07:24:36;;;;;;;8.00;5.40;;;;;;;21.22;45.25;99311.69;105006;1268;60478;-79
2022/05/16 07:29:48;;;;;;;9.60;5.40;;;;;;;20.80;45.08;99314.17;105329;1268;74396;-77
2022/05/16 07:32:14;;;;;;;11.10;5.10;;;;;;;20.71;46.04;99316.70;105363;1268;60593;-76
2022/05/16 07:34:41;;;;;;;12.40;5.80;;;;;;;20.78;46.29;99314.91;105324;1268;60534;-77
2022/05/16 07:37:08;;;;;;;7.60;5.20;;;;;;;20.82;46.81;99314.86;105326;1268;60571;-78
2022/05/16 07:39:35;;;;;;;11.20;6.60;;;;;;;20.91;46.80;99317.52;105323;1267;61176;-80
2022/05/16 07:42:03;;;;;;;6.50;5.00;;;;;;;20.92;46.17;99314.39;105346;1268;74826;-76
2022/05/16 07:44:32;;;;;;;9.00;4.10;;;;;;;20.70;45.48;99321.73;105341;1268;69381;-76
2022/05/16 07:46:59;;;;;;;12.10;5.30;;;;;;;20.61;46.18;99321.61;105045;1268;74364;-76
2022/05/16 07:49:26;;;;;;;8.80;5.10;;;;;;;20.51;46.33;99319.71;105315;1268;60488;-76
2022/05/16 07:51:52;;;;;;;6.90;4.20;;;;;;;20.53;47.11;99317.10;105325;1267;60503;-78
2022/05/16 07:54:19;;;;;;;7.80;3.90;;;;;;;20.67;47.16;99317.83;105101;1268;75312;-77
2022/05/16 07:56:46;;;;;;;6.80;4.40;;;;;;;20.79;47.27;99317.86;105364;1268;69297;-76
2022/05/16 07:59:12;;;;;;;4.50;2.60;;;;;;;20.90;46.52;99318.89;105340;1268;72704;-76
2022/05/16 08:01:39;;;;;;;5.10;2.90;;;;;;;20.90;44.39;99315.85;105521;1267;60498;-76
2022/05/16 08:04:06;;;;;;;5.20;2.70;;;;;;;20.88;44.73;99309.02;105642;1268;60365;-76
2022/05/16 08:06:34;;;;;;;5.40;3.10;;;;;;;21.04;44.71;99312.20;105640;1268;74449;-78
2022/05/16 08:11:47;;;;;;;5.70;3.00;;;;;;;21.25;44.04;99313.23;105564;1268;74182;-77
2022/05/16 08:14:14;;;;;;;5.70;2.20;;;;;;;21.37;43.81;99310.36;105394;1268;60457;-75
2022/05/16 08:16:40;;;;;;;4.10;2.30;;;;;;;21.46;42.89;99310.27;105290;1268;60761;-76
2022/05/16 08:19:07;;;;;;;4.10;2.20;;;;;;;21.47;42.08;99312.92;105376;1268;75361;-76
2022/05/16 08:21:36;;;;;;;5.00;2.50;;;;;;;21.53;41.36;99309.58;105254;1269;70383;-79
2022/05/16 08:24:07;;;;;;;4.80;2.40;;;;;;;21.58;40.63;99305.43;105297;1268;73376;-77
2022/05/16 08:26:34;;;;;;;4.90;2.50;;;;;;;21.47;38.70;99304.02;105338;1268;60572;-77
2022/05/16 08:29:01;;;;;;;3.80;2.20;;;;;;;21.38;39.86;99300.52;105284;1268;60966;-77
2022/05/16 08:31:28;;;;;;;5.50;2.30;;;;;;;21.45;39.31;99304.95;105303;1268;74638;-77
2022/05/16 08:33:56;;;;;;;3.80;2.30;;;;;;;21.56;38.64;99300.14;105323;1268;69383;-76
2022/05/16 08:42:05;;;;;;;6.00;4.60;;;;;;;22.10;38.54;99293.42;105305;1268;61797;-77
2022/05/16 08:44:38;;;;;;;4.10;2.50;;;;;;;22.18;38.53;99292.52;105280;1268;73946;-78
2022/05/16 08:47:34;;;;;;;3.10;2.00;;;;;;;22.27;38.24;99286.97;105307;1268;69169;-77
2022/05/16 08:50:14;;;;;;;3.70;2.00;;;;;;;22.29;37.81;99284.63;105300;1267;73194;-76
2022/05/16 08:52:54;;;;;;;4.30;2.20;;;;;;;22.22;35.83;99290.42;105010;1269;60543;-76
2022/05/16 08:55:31;;;;;;;3.50;1.90;;;;;;;22.17;36.87;99290.11;105291;1268;60829;-77
2022/05/16 08:58:10;;;;;;;5.00;1.90;;;;;;;22.31;37.33;99286.53;105344;1268;75559;-77
2022/05/16 09:00:47;;;;;;;3.40;1.40;;;;;;;22.52;37.31;99289.28;105342;1268;69370;-77
2022/05/16 09:03:26;;;;;;;2.60;1.40;;;;;;;22.71;36.86;99288.80;105287;1268;73645;-77
2022/05/16 09:06:03;;;;;;;3.60;1.60;;;;;;;22.78;36.66;99279.45;105286;1268;60523;-76
2022/05/16 09:09:01;;;;;;;3.00;1.50;;;;;;;22.88;36.37;99278.29;105370;1268;62028;-76
2022/05/16 09:11:28;;;;;;;2.40;1.50;;;;;;;22.92;35.80;99283.83;104849;1277;75749;-76
2022/05/16 09:14:00;;;;;;;2.30;1.30;;;;;;;22.94;35.51;99285.65;104835;1277;60576;-78
2022/05/16 09:16:37;;;;;;;2.30;1.40;;;;;;;22.91;35.47;99281.39;104850;1276;73395;-74
2022/05/16 09:19:25;;;;;;;2.20;1.50;;;;;;;22.85;34.36;99280.73;104816;1277;60769;-77
2022/05/16 09:21:52;;;;;;;3.40;1.20;;;;;;;22.92;35.50;99279.17;104705;1276;60839;-78
2022/05/16 09:24:27;;;;;;;5.30;1.70;;;;;;;23.10;35.54;99280.98;104805;1277;60483;-77
2022/05/16 09:27:02;;;;;;;2.20;1.70;;;;;;;23.15;35.15;99276.86;104873;1277;68700;-79
2022/05/16 09:29:39;;;;;;;4.40;2.20;;;;;;;23.05;34.77;99272.84;104820;1275;73190;-78
2022/05/16 09:32:30;;;;;;;3.50;1.60;;;;;;;23.09;35.29;99268.84;104812;1275;60545;-77
2022/05/16 09:34:56;;;;;;;3.60;1.60;;;;;;;23.21;35.36;99267.52;104839;1277;61021;-77
2022/05/16 09:37:23;;;;;;;3.80;1.90;;;;;;;23.30;35.32;99265.63;104578;1276;60540;-77
2022/05/16 09:39:52;;;;;;;3.00;1.50;;;;;;;23.36;35.39;99265.81;104498;1277;69218;-76
2022/05/16 09:42:35;;;;;;;3.60;2.20;;;;;;;23.41;34.86;99272.02;104815;1277;74152;-77
2022/05/16 09:45:13;;;;;;;4.60;1.50;;;;;;;23.51;34.49;99270.90;104816;1277;60504;-78
2022/05/16 09:47:42;;;;;;;5.20;1.70;;;;;;;23.65;35.06;99268.71;104838;1277;60878;-78
2022/05/16 09:50:14;;;;;;;4.20;1.60;;;;;;;23.75;34.79;99267.25;104995;1274;75496;-77
2022/05/16 09:52:48;;;;;;;4.10;2.20;;;;;;;23.81;34.81;99264.73;105204;1274;68660;-77
2022/05/16 09:55:29;;;;;;;6.80;2.30;;;;;;;23.90;35.10;99266.04;104962;1274;72836;-78
2022/05/16 09:58:00;;;;;;;3.00;1.60;;;;;;;23.94;34.90;99259.72;104934;1274;60475;-77
2022/05/16 10:00:42;;;;;;;3.20;1.60;;;;;;;23.91;34.48;99252.46;105031;1274;61584;-76
2022/05/16 10:03:31;;;;;;;3.10;1.80;;;;;;;23.90;34.55;99252.81;104851;1274;74403;-78
2022/05/16 10:06:06;;;;;;;3.90;1.50;;;;;;;23.94;34.14;99253.94;104944;1274;70137;-77
2022/05/16 10:08:39;;;;;;;3.70;1.60;;;;;;;23.98;34.30;99252.55;104919;1274;72506;-78
2022/05/16 10:11:11;;;;;;;3.00;2.00;;;;;;;24.01;33.40;99254.73;104909;1273;60586;-78
2022/05/16 10:13:38;;;;;;;3.40;1.80;;;;;;;23.91;32.43;99250.05;105011;1271;60956;-78
2022/05/16 10:16:07;;;;;;;4.00;2.10;;;;;;;23.71;31.68;99245.80;104988;1274;72700;-77
2022/05/16 10:18:50;;;;;;;4.80;1.60;;;;;;;23.54;31.73;99250.83;104989;1274;70726;-78
2022/05/16 10:21:29;;;;;;;4.60;2.60;;;;;;;23.46;31.63;99256.32;105023;1271;74506;-78
2022/05/16 10:23:59;;;;;;;5.90;2.00;;;;;;;23.38;31.56;99259.63;105014;1271;60594;-78
2022/05/16 10:26:32;;;;;;;5.80;2.10;;;;;;;23.40;31.44;99258.39;105187;1271;60874;-78
2022/05/16 10:29:06;;;;;;;3.80;2.20;;;;;;;23.41;31.29;99259.02;105109;1271;75559;-76
2022/05/16 10:34:53;;;;;;;4.00;2.00;;;;;;;23.39;31.30;99254.52;105170;1268;71773;-77
2022/05/16 10:37:21;;;;;;;3.40;1.90;;;;;;;23.55;31.24;99244.52;104969;1277;60823;-77
2022/05/16 10:39:52;;;;;;;3.60;2.10;;;;;;;23.50;29.95;99240.08;104735;1276;61481;-79
2022/05/16 10:42:29;;;;;;;2.60;1.30;;;;;;;23.37;30.26;99240.58;104823;1276;73913;-78
2022/05/16 10:45:00;;;;;;;4.90;2.20;;;;;;;23.49;31.05;99240.52;104763;1276;68133;-77
2022/05/16 10:47:30;;;;;;;5.10;2.20;;;;;;;23.71;31.06;99240.27;104666;1276;74288;-77
2022/05/16 10:50:03;;;;;;;6.00;2.00;;;;;;;23.80;29.71;99238.70;104753;1276;60748;-77
2022/05/16 10:52:37;;;;;;;3.50;2.30;;;;;;;23.70;29.83;99236.58;104906;1277;60495;-77
2022/05/16 10:55:05;;;;;;;2.50;1.60;;;;;;;23.70;29.87;99236.85;104590;1277;74798;-77
2022/05/16 10:58:08;;;;;;;3.90;1.90;;;;;;;23.77;29.88;99235.97;104535;1278;69224;-79
2022/05/16 11:00:45;;;;;;;3.40;2.30;;;;;;;23.86;30.12;99235.83;104467;1277;72238;-78
2022/05/16 11:03:51;;;;;;;4.50;1.80;;;;;;;24.03;29.80;99231.77;104583;1277;60617;-78
2022/05/16 11:06:37;;;;;;;4.00;1.50;;;;;;;24.19;30.44;99228.03;104537;1277;60863;-78
2022/05/16 11:09:12;;;;;;;3.20;2.00;;;;;;;24.44;30.74;99221.26;104526;1277;74332;-78
2022/05/16 11:12:00;;;;;;;4.00;1.90;;;;;;;24.69;31.15;99216.80;104505;1277;69140;-77
2022/05/16 11:14:59;;;;;;;2.90;1.80;;;;;;;24.90;31.00;99210.39;104671;1271;74393;-78
2022/05/16 11:17:51;;;;;;;2.60;1.90;;;;;;;25.04;31.10;99205.53;105234;1268;60587;-79
2022/05/16 11:20:35;;;;;;;3.10;2.00;;;;;;;25.14;30.68;99203.59;105014;1268;60634;-78
2022/05/16 11:23:20;;;;;;;4.60;2.40;;;;;;;25.18;30.47;99199.42;105278;1268;76151;-78
2022/05/16 11:25:59;;;;;;;6.30;1.90;;;;;;;25.18;29.23;99199.30;105269;1268;69529;-79
2022/05/16 11:29:16;;;;;;;2.80;2.30;;;;;;;24.96;29.02;99200.43;105265;1268;73593;-78
2022/05/16 11:31:37;;;;;;;5.60;2.10;;;;;;;24.83;28.22;99200.90;105241;1271;60613;-77
2022/05/16 11:34:14;;;;;;;2.20;1.80;;;;;;;24.67;28.60;99195.44;105237;1268;60436;-81
2022/05/16 11:37:09;;;;;;;3.00;2.00;;;;;;;24.81;29.72;99199.11;105247;1268;75448;-80
2022/05/16 11:39:36;;;;;;;5.30;2.90;;;;;;;25.02;29.82;99200.30;105233;1268;69651;-82
2022/05/16 11:42:33;;;;;;;4.30;2.10;;;;;;;25.22;30.11;99197.67;105247;1268;73673;-80
2022/05/16 11:45:37;;;;;;;3.30;1.70;;;;;;;25.43;30.31;99194.27;105280;1268;60589;-79
2022/05/16 11:48:24;;;;;;;4.00;2.10;;;;;;;25.58;30.22;99193.46;105005;1271;60711;-79
2022/05/16 11:51:21;;;;;;;3.90;2.10;;;;;;;25.55;29.73;99194.56;105243;1268;75511;-77
2022/05/16 11:53:54;;;;;;;5.20;2.40;;;;;;;25.42;29.37;99194.92;104489;1277;70315;-78
2022/05/16 12:02:33;;;;;;;3.70;2.00;;;;;;;25.40;29.05;99182.27;104492;1277;62047;-76
2022/05/16 12:05:09;;;;;;;3.30;2.10;;;;;;;25.49;29.20;99179.75;104559;1277;75990;-77
2022/05/16 12:07:35;;;;;;;3.10;2.00;;;;;;;25.59;29.46;99176.11;104530;1278;69273;-77
2022/05/16 12:10:08;;;;;;;5.60;2.20;;;;;;;25.75;29.46;99173.52;104489;1278;60668;-77
2022/05/16 12:12:37;;;;;;;4.90;1.80;;;;;;;25.70;28.39;99175.59;104466;1277;60631;-76
2022/05/16 12:15:16;;;;;;;2.50;1.80;;;;;;;25.62;29.11;99171.95;104508;1277;61202;-77
2022/05/16 12:17:48;;;;;;;3.50;1.80;;;;;;;25.76;29.72;99164.68;104585;1278;74447;-75